createdAt,value
2022-08-12T00:00:32.061Z,4.20
2022-08-12T00:02:03.811Z,4.20
2022-08-12T00:02:40.881Z,4.70
2022-08-12T00:03:32.841Z,4.50
2022-08-12T00:04:26.670Z,4.10
2022-08-12T00:05:19.282Z,4.00
2022-08-12T00:06:11.032Z,4.30
2022-08-12T00:07:04.115Z,4.50
2022-08-12T00:08:00.424Z,4.30
2022-08-12T00:08:54.112Z,4.40
2022-08-12T00:09:46.420Z,4.40
2022-08-12T00:10:41.132Z,3.90
2022-08-12T00:11:33.872Z,4.10
2022-08-12T00:12:25.634Z,4.70
2022-08-12T00:13:17.377Z,4.50
2022-08-12T00:14:09.575Z,4.50
2022-08-12T00:15:02.926Z,4.50
2022-08-12T00:15:55.692Z,4.10
2022-08-12T00:16:48.693Z,4.40
2022-08-12T00:17:40.867Z,4.50
2022-08-12T00:18:33.639Z,4.50
2022-08-12T00:19:25.221Z,5.00
2022-08-12T00:20:16.971Z,4.60
2022-08-12T00:21:09.049Z,4.60
2022-08-12T00:22:01.349Z,5.00
2022-08-12T00:22:59.044Z,4.70
2022-08-12T00:23:51.261Z,4.60
2022-08-12T00:24:43.218Z,4.80
2022-08-12T00:25:55.816Z,4.10
2022-08-12T00:26:47.156Z,5.30
2022-08-12T00:27:43.971Z,3.90
2022-08-12T00:28:36.544Z,4.60
2022-08-12T00:29:29.175Z,5.00
2022-08-12T00:30:21.335Z,5.60
2022-08-12T00:31:13.563Z,5.00
2022-08-12T00:32:05.672Z,4.60
2022-08-12T00:32:58.133Z,4.90
2022-08-12T00:33:51.541Z,5.40
2022-08-12T00:34:44.474Z,5.40
2022-08-12T00:35:38.634Z,4.80
2022-08-12T00:36:36.208Z,5.00
2022-08-12T00:37:28.674Z,4.60
2022-08-12T00:38:21.828Z,4.70
2022-08-12T00:39:15.166Z,4.60
2022-08-12T00:40:11.003Z,4.40
2022-08-12T00:41:03.916Z,4.50
2022-08-12T00:41:57.201Z,5.30
2022-08-12T00:42:30.394Z,4.80
2022-08-12T00:43:07.443Z,5.50
2022-08-12T00:43:44.130Z,4.90
2022-08-12T00:44:21.500Z,5.30
2022-08-12T00:44:56.725Z,4.60
2022-08-12T00:45:53.359Z,5.10
2022-08-12T00:46:41.744Z,4.80
2022-08-12T00:47:25.428Z,5.10
2022-08-12T00:47:59.027Z,4.80
2022-08-12T00:48:32.583Z,5.20
2022-08-12T00:49:07.251Z,5.10
2022-08-12T00:49:42.267Z,4.30
2022-08-12T00:50:25.879Z,4.60
2022-08-12T00:51:02.087Z,5.60
2022-08-12T00:51:58.485Z,4.30
2022-08-12T00:52:33.521Z,4.70
2022-08-12T00:53:09.644Z,4.50
2022-08-12T00:53:42.848Z,4.30
2022-08-12T00:54:17.077Z,4.20
2022-08-12T00:54:57.335Z,3.80
2022-08-12T00:55:30.939Z,3.90
2022-08-12T00:56:06.702Z,4.80
2022-08-12T00:56:41.774Z,4.70
2022-08-12T00:57:18.836Z,4.60
2022-08-12T00:57:52.406Z,5.30
2022-08-12T00:58:31.502Z,4.70
2022-08-12T00:59:04.756Z,5.70
2022-08-12T00:59:44.640Z,5.80
2022-08-12T01:00:24.862Z,6.30
2022-08-12T01:01:04.481Z,6.10
2022-08-12T01:02:02.369Z,5.30
2022-08-12T01:02:42.299Z,5.40
2022-08-12T01:03:20.676Z,5.00
2022-08-12T01:04:15.889Z,5.20
2022-08-12T01:05:12.531Z,4.70
2022-08-12T01:06:07.383Z,4.80
2022-08-12T01:07:01.731Z,4.40
2022-08-12T01:07:56.623Z,4.20
2022-08-12T01:08:49.665Z,4.70
2022-08-12T01:09:41.989Z,4.20
2022-08-12T01:10:34.232Z,3.90
2022-08-12T01:11:25.982Z,3.90
2022-08-12T01:12:00.721Z,4.10
2022-08-12T01:12:35.863Z,4.00
2022-08-12T01:13:20.202Z,3.60
2022-08-12T01:13:54.520Z,3.80
2022-08-12T01:14:29.103Z,3.70
2022-08-12T01:15:05.020Z,3.90
2022-08-12T01:15:39.285Z,4.50
2022-08-12T01:16:15.801Z,4.30
2022-08-12T01:16:49.245Z,4.30
2022-08-12T01:17:25.501Z,4.40
2022-08-12T01:17:59.553Z,4.70
2022-08-12T01:18:40.063Z,3.90
2022-08-12T01:19:13.507Z,3.70
2022-08-12T01:19:50.895Z,4.30
2022-08-12T01:20:37.431Z,3.50
2022-08-12T01:21:29.322Z,3.90
2022-08-12T01:22:29.512Z,3.80
2022-08-12T01:23:15.615Z,3.90
2022-08-12T01:24:28.011Z,3.60
2022-08-12T01:25:41.599Z,3.80
2022-08-12T01:26:32.475Z,3.80
2022-08-12T01:27:09.397Z,4.00
2022-08-12T01:27:43.473Z,4.10
2022-08-12T01:28:18.323Z,3.30
2022-08-12T01:28:59.932Z,3.80
2022-08-12T01:29:35.380Z,3.70
2022-08-12T01:30:11.439Z,3.90
2022-08-12T01:30:45.229Z,4.30
2022-08-12T01:31:20.231Z,3.60
2022-08-12T01:31:57.315Z,3.80
2022-08-12T01:32:37.288Z,3.80
2022-08-12T01:33:17.862Z,4.00
2022-08-12T01:34:33.381Z,3.50
2022-08-12T01:35:06.010Z,3.60
2022-08-12T01:35:45.215Z,3.60
2022-08-12T01:36:41.098Z,2.80
2022-08-12T01:37:20.577Z,3.20
2022-08-12T01:38:04.655Z,3.00
2022-08-12T01:38:38.840Z,3.00
2022-08-12T01:39:15.745Z,3.20
2022-08-12T01:40:35.055Z,3.70
2022-08-12T01:40:48.521Z,3.60
2022-08-12T01:41:24.071Z,3.60
2022-08-12T01:42:03.472Z,4.40
2022-08-12T01:42:48.671Z,3.60
2022-08-12T01:43:22.865Z,3.60
2022-08-12T01:44:00.813Z,3.50
2022-08-12T01:44:35.369Z,3.20
2022-08-12T01:45:10.332Z,3.70
2022-08-12T01:46:12.841Z,4.30
2022-08-12T01:47:20.663Z,3.70
2022-08-12T01:48:13.471Z,3.10
2022-08-12T01:49:08.308Z,3.40
2022-08-12T01:50:07.575Z,3.20
2022-08-12T01:51:10.317Z,3.40
2022-08-12T01:52:21.871Z,2.70
2022-08-12T01:52:56.889Z,2.90
2022-08-12T01:54:06.554Z,3.40
2022-08-12T01:54:44.704Z,3.20
2022-08-12T01:55:22.361Z,3.80
2022-08-12T01:55:56.864Z,3.90
2022-08-12T01:56:41.967Z,3.10
2022-08-12T01:57:58.986Z,3.00
2022-08-12T01:58:53.198Z,3.60
2022-08-12T01:59:50.298Z,4.20
2022-08-12T02:00:25.865Z,3.80
2022-08-12T02:01:12.473Z,3.40
2022-08-12T02:01:49.581Z,3.90
2022-08-12T02:02:32.347Z,3.30
2022-08-12T02:03:55.739Z,2.80
2022-08-12T02:05:22.785Z,3.10
2022-08-12T02:06:41.132Z,3.20
2022-08-12T02:07:49.053Z,3.00
2022-08-12T02:09:01.260Z,3.10
2022-08-12T02:10:50.058Z,3.00
2022-08-12T02:11:49.423Z,2.80
2022-08-12T02:12:34.891Z,2.80
2022-08-12T02:13:41.882Z,2.80
2022-08-12T02:14:46.102Z,3.00
2022-08-12T02:15:49.951Z,3.70
2022-08-12T02:16:54.646Z,3.60
2022-08-12T02:17:56.568Z,3.90
2022-08-12T02:19:03.638Z,3.90
2022-08-12T02:20:01.691Z,4.00
2022-08-12T02:20:52.207Z,3.90
2022-08-12T02:22:09.123Z,3.80
2022-08-12T02:22:45.207Z,3.50
2022-08-12T02:23:19.573Z,3.50
2022-08-12T02:23:54.223Z,3.30
2022-08-12T02:24:31.567Z,3.50
2022-08-12T02:25:09.681Z,3.20
2022-08-12T02:25:45.865Z,3.20
2022-08-12T02:26:20.622Z,2.90
2022-08-12T02:26:54.731Z,3.10
2022-08-12T02:27:34.754Z,3.20
2022-08-12T02:28:08.325Z,3.40
2022-08-12T02:28:42.122Z,3.50
2022-08-12T02:29:16.355Z,3.50
2022-08-12T02:29:50.736Z,3.60
2022-08-12T02:30:33.167Z,4.00
2022-08-12T02:31:15.566Z,3.80
2022-08-12T02:31:50.137Z,4.20
2022-08-12T02:32:24.647Z,3.70
2022-08-12T02:33:00.843Z,4.60
2022-08-12T02:33:35.898Z,4.40
2022-08-12T02:34:10.091Z,3.70
2022-08-12T02:34:44.851Z,3.80
2022-08-12T02:35:21.404Z,4.10
2022-08-12T02:35:56.022Z,4.10
2022-08-12T02:36:32.035Z,4.40
2022-08-12T02:37:09.497Z,4.90
2022-08-12T02:37:44.372Z,3.90
2022-08-12T02:38:18.694Z,4.20
2022-08-12T02:38:54.441Z,4.70
2022-08-12T02:39:34.066Z,3.80
2022-08-12T02:40:09.543Z,3.60
2022-08-12T02:40:52.751Z,4.40
2022-08-12T02:41:28.258Z,4.50
2022-08-12T02:42:07.320Z,4.40
2022-08-12T02:43:23.771Z,4.60
2022-08-12T02:44:03.038Z,4.50
2022-08-12T02:44:40.616Z,4.60
2022-08-12T02:45:19.713Z,4.30
2022-08-12T02:45:57.743Z,5.60
2022-08-12T02:46:35.077Z,5.80
2022-08-12T02:47:58.692Z,5.40
2022-08-12T02:48:08.241Z,5.40
2022-08-12T02:48:46.119Z,4.60
2022-08-12T02:49:31.611Z,4.90
2022-08-12T02:50:06.329Z,5.10
2022-08-12T02:50:45.637Z,5.90
2022-08-12T02:51:24.550Z,4.80
2022-08-12T02:52:00.468Z,4.70
2022-08-12T02:52:34.761Z,5.20
2022-08-12T02:53:09.565Z,5.00
2022-08-12T02:53:45.441Z,5.50
2022-08-12T02:54:38.939Z,5.30
2022-08-12T02:55:28.814Z,4.50
2022-08-12T02:56:08.278Z,4.60
2022-08-12T02:56:50.525Z,5.00
2022-08-12T02:57:25.212Z,4.50
2022-08-12T02:57:59.777Z,5.70
2022-08-12T02:58:45.415Z,5.60
2022-08-12T02:59:23.139Z,5.30
2022-08-12T02:59:57.045Z,5.60
2022-08-12T03:00:31.599Z,5.10
2022-08-12T03:01:09.939Z,5.50
2022-08-12T03:01:50.009Z,5.00
2022-08-12T03:02:27.832Z,5.20
2022-08-12T03:03:06.166Z,5.60
2022-08-12T03:03:41.466Z,4.80
2022-08-12T03:04:24.735Z,5.60
2022-08-12T03:04:59.330Z,5.20
2022-08-12T03:05:38.499Z,4.60
2022-08-12T03:06:22.597Z,5.70
2022-08-12T03:07:02.692Z,5.10
2022-08-12T03:07:56.487Z,5.90
2022-08-12T03:08:43.633Z,5.10
2022-08-12T03:09:24.776Z,5.40
2022-08-12T03:10:15.858Z,5.80
2022-08-12T03:10:55.345Z,5.40
2022-08-12T03:11:42.691Z,5.80
2022-08-12T03:12:20.110Z,5.40
2022-08-12T03:12:57.978Z,4.80
2022-08-12T03:13:36.456Z,5.00
2022-08-12T03:14:15.329Z,4.30
2022-08-12T03:14:51.104Z,5.20
2022-08-12T03:15:24.995Z,4.90
2022-08-12T03:15:59.170Z,5.20
2022-08-12T03:16:33.567Z,5.20
2022-08-12T03:17:30.777Z,5.10
2022-08-12T03:18:27.022Z,5.80
2022-08-12T03:19:04.237Z,4.00
2022-08-12T03:20:10.071Z,5.30
2022-08-12T03:20:43.566Z,5.70
2022-08-12T03:21:55.697Z,5.30
2022-08-12T03:22:14.827Z,5.70
2022-08-12T03:22:50.076Z,5.40
2022-08-12T03:23:29.903Z,5.70
2022-08-12T03:24:39.681Z,5.80
2022-08-12T03:25:17.316Z,5.80
2022-08-12T03:25:52.726Z,5.50
2022-08-12T03:26:30.401Z,6.00
2022-08-12T03:27:06.026Z,6.00
2022-08-12T03:27:49.789Z,6.20
2022-08-12T03:28:42.538Z,6.20
2022-08-12T03:29:18.035Z,5.90
2022-08-12T03:29:54.621Z,5.90
2022-08-12T03:30:34.282Z,5.80
2022-08-12T03:31:09.252Z,6.40
2022-08-12T03:31:44.354Z,7.00
2022-08-12T03:32:36.300Z,6.80
2022-08-12T03:33:12.751Z,6.10
2022-08-12T03:34:01.811Z,7.00
2022-08-12T03:34:37.581Z,6.50
2022-08-12T03:35:36.963Z,7.20
2022-08-12T03:36:09.336Z,6.80
2022-08-12T03:36:43.157Z,7.30
2022-08-12T03:37:20.850Z,7.10
2022-08-12T03:38:01.350Z,7.50
2022-08-12T03:38:37.691Z,5.80
2022-08-12T03:39:35.423Z,6.50
2022-08-12T03:40:30.968Z,6.60
2022-08-12T03:41:36.443Z,6.40
2022-08-12T03:42:18.308Z,6.50
2022-08-12T03:43:11.647Z,6.40
2022-08-12T03:44:47.023Z,6.20
2022-08-12T03:45:52.059Z,6.90
2022-08-12T03:46:52.592Z,5.90
2022-08-12T03:47:53.388Z,6.80
2022-08-12T03:48:45.563Z,6.10
2022-08-12T03:49:38.411Z,5.90
2022-08-12T03:50:31.169Z,7.00
2022-08-12T03:51:23.990Z,6.10
2022-08-12T03:52:18.258Z,6.00
2022-08-12T03:53:10.481Z,6.20
2022-08-12T03:54:04.406Z,6.00
2022-08-12T03:54:56.036Z,5.70
2022-08-12T03:55:48.001Z,6.10
2022-08-12T03:56:40.102Z,6.40
2022-08-12T03:57:31.839Z,5.90
2022-08-12T03:58:25.188Z,6.00
2022-08-12T03:59:19.373Z,6.10
2022-08-12T04:00:10.935Z,5.50
2022-08-12T04:00:56.926Z,5.10
2022-08-12T04:01:31.041Z,5.40
2022-08-12T04:02:04.378Z,5.60
2022-08-12T04:02:41.469Z,6.10
2022-08-12T04:03:33.577Z,5.90
2022-08-12T04:04:09.428Z,5.20
2022-08-12T04:04:45.744Z,5.50
2022-08-12T04:05:21.658Z,5.10
2022-08-12T04:05:56.885Z,5.10
2022-08-12T04:06:35.625Z,5.50
2022-08-12T04:07:10.438Z,4.90
2022-08-12T04:07:51.297Z,5.50
2022-08-12T04:08:32.356Z,4.50
2022-08-12T04:09:15.846Z,4.90
2022-08-12T04:09:50.179Z,5.30
2022-08-12T04:10:43.530Z,4.70
2022-08-12T04:11:36.153Z,5.20
2022-08-12T04:12:39.052Z,5.60
2022-08-12T04:13:19.937Z,5.60
2022-08-12T04:14:28.275Z,5.60
2022-08-12T04:15:02.306Z,5.00
2022-08-12T04:15:35.552Z,5.80
2022-08-12T04:16:13.826Z,4.90
2022-08-12T04:16:49.526Z,4.70
2022-08-12T04:17:23.621Z,4.90
2022-08-12T04:18:06.994Z,5.80
2022-08-12T04:18:42.658Z,4.60
2022-08-12T04:19:17.568Z,4.90
2022-08-12T04:19:52.046Z,4.50
2022-08-12T04:20:25.379Z,4.30
2022-08-12T04:20:59.081Z,4.60
2022-08-12T04:21:33.537Z,4.80
2022-08-12T04:22:06.742Z,5.10
2022-08-12T04:22:40.922Z,4.90
2022-08-12T04:23:17.784Z,5.20
2022-08-12T04:23:52.211Z,5.10
2022-08-12T04:24:27.233Z,5.30
2022-08-12T04:25:02.216Z,5.40
2022-08-12T04:25:39.797Z,5.10
2022-08-12T04:26:12.876Z,5.20
2022-08-12T04:26:46.332Z,4.80
2022-08-12T04:27:21.488Z,5.60
2022-08-12T04:27:55.348Z,5.30
2022-08-12T04:28:29.340Z,5.10
2022-08-12T04:29:03.873Z,4.70
2022-08-12T04:30:17.243Z,5.70
2022-08-12T04:30:33.920Z,4.30
2022-08-12T04:31:06.976Z,5.00
2022-08-12T04:31:43.035Z,5.70
2022-08-12T04:32:16.191Z,4.90
2022-08-12T04:32:51.968Z,4.80
2022-08-12T04:33:27.206Z,5.30
2022-08-12T04:34:00.939Z,5.40
2022-08-12T04:34:34.168Z,5.00
2022-08-12T04:35:07.652Z,6.00
2022-08-12T04:35:41.087Z,5.40
2022-08-12T04:36:14.136Z,6.10
2022-08-12T04:36:47.311Z,5.30
2022-08-12T04:37:21.029Z,5.40
2022-08-12T04:38:00.429Z,5.60
2022-08-12T04:38:35.079Z,5.10
2022-08-12T04:39:11.042Z,6.30
2022-08-12T04:39:46.234Z,5.30
2022-08-12T04:40:28.003Z,4.50
2022-08-12T04:41:03.818Z,5.40
2022-08-12T04:41:38.892Z,5.50
2022-08-12T04:42:31.209Z,5.10
2022-08-12T04:43:05.121Z,5.30
2022-08-12T04:44:01.503Z,5.00
2022-08-12T04:44:32.965Z,5.00
2022-08-12T04:45:07.913Z,5.30
2022-08-12T04:45:41.167Z,4.70
2022-08-12T04:46:17.529Z,6.10
2022-08-12T04:46:54.879Z,5.40
2022-08-12T04:47:28.612Z,4.90
2022-08-12T04:48:04.428Z,5.10
2022-08-12T04:48:37.898Z,5.10
2022-08-12T04:49:11.096Z,4.80
2022-08-12T04:49:46.568Z,5.70
2022-08-12T04:50:35.408Z,5.20
2022-08-12T04:51:10.643Z,5.50
2022-08-12T04:51:44.441Z,5.20
2022-08-12T04:52:34.850Z,5.00
2022-08-12T04:53:09.320Z,4.90
2022-08-12T04:53:42.975Z,4.60
2022-08-12T04:54:17.225Z,5.10
2022-08-12T04:54:54.355Z,5.40
2022-08-12T04:55:28.603Z,4.90
2022-08-12T04:56:01.947Z,4.30
2022-08-12T04:56:35.839Z,4.90
2022-08-12T04:57:10.061Z,5.30
2022-08-12T04:57:43.484Z,5.20
2022-08-12T04:58:16.651Z,4.80
2022-08-12T04:59:05.280Z,5.20
2022-08-12T04:59:48.230Z,5.10
2022-08-12T05:00:22.695Z,5.20
2022-08-12T05:00:55.977Z,5.60
2022-08-12T05:01:31.425Z,5.50
2022-08-12T05:02:05.123Z,4.70
2022-08-12T05:02:43.304Z,4.80
2022-08-12T05:03:17.291Z,4.60
2022-08-12T05:03:52.176Z,5.00
2022-08-12T05:04:27.189Z,4.20
2022-08-12T05:05:03.323Z,4.40
2022-08-12T05:05:40.477Z,4.80
2022-08-12T05:06:20.819Z,4.40
2022-08-12T05:07:00.213Z,4.40
2022-08-12T05:07:34.381Z,4.10
2022-08-12T05:08:18.919Z,4.30
2022-08-12T05:08:57.657Z,4.70
2022-08-12T05:09:59.047Z,4.80
2022-08-12T05:10:34.039Z,3.90
2022-08-12T05:11:11.134Z,3.90
2022-08-12T05:11:53.787Z,4.40
2022-08-12T05:12:33.459Z,4.10
2022-08-12T05:13:16.670Z,4.20
2022-08-12T05:13:53.523Z,4.60
2022-08-12T05:14:26.651Z,4.00
2022-08-12T05:15:00.927Z,4.20
2022-08-12T05:15:35.966Z,4.50
2022-08-12T05:16:09.633Z,4.40
2022-08-12T05:16:42.960Z,4.00
2022-08-12T05:17:19.033Z,3.90
2022-08-12T05:17:53.043Z,4.20
2022-08-12T05:18:29.392Z,3.90
2022-08-12T05:19:03.260Z,4.20
2022-08-12T05:19:36.370Z,3.90
2022-08-12T05:20:15.851Z,3.50
2022-08-12T05:20:49.149Z,3.70
2022-08-12T05:21:22.423Z,3.90
2022-08-12T05:21:55.601Z,3.90
2022-08-12T05:22:29.095Z,3.70
2022-08-12T05:23:13.360Z,3.80
2022-08-12T05:23:46.796Z,3.90
2022-08-12T05:24:19.865Z,4.20
2022-08-12T05:24:53.266Z,4.30
2022-08-12T05:25:26.730Z,4.20
2022-08-12T05:26:01.352Z,4.20
2022-08-12T05:26:34.540Z,4.00
2022-08-12T05:27:07.828Z,3.80
2022-08-12T05:27:40.980Z,4.30
2022-08-12T05:28:31.387Z,4.10
2022-08-12T05:29:10.450Z,4.10
2022-08-12T05:30:07.906Z,3.30
2022-08-12T05:30:43.903Z,3.60
2022-08-12T05:31:47.540Z,3.50
2022-08-12T05:32:11.687Z,3.30
2022-08-12T05:32:44.781Z,3.60
2022-08-12T05:33:17.861Z,3.70
2022-08-12T05:33:51.167Z,4.00
2022-08-12T05:34:26.799Z,4.30
2022-08-12T05:35:07.130Z,4.20
2022-08-12T05:35:43.334Z,3.80
2022-08-12T05:36:17.737Z,4.30
2022-08-12T05:36:50.953Z,3.90
2022-08-12T05:37:24.156Z,4.50
2022-08-12T05:38:16.115Z,4.20
2022-08-12T05:38:58.223Z,4.40
2022-08-12T05:39:32.856Z,3.50
2022-08-12T05:40:10.842Z,3.70
2022-08-12T05:40:44.291Z,3.90
2022-08-12T05:41:20.894Z,4.00
2022-08-12T05:41:55.041Z,4.10
2022-08-12T05:42:32.495Z,4.00
2022-08-12T05:43:08.412Z,3.90
2022-08-12T05:43:41.667Z,4.40
2022-08-12T05:44:16.656Z,3.90
2022-08-12T05:44:50.034Z,4.10
2022-08-12T05:45:23.225Z,4.10
2022-08-12T05:45:56.514Z,4.10
2022-08-12T05:46:32.096Z,3.90
2022-08-12T05:47:05.384Z,4.50
2022-08-12T05:47:53.428Z,4.40
2022-08-12T05:48:27.927Z,4.50
2022-08-12T05:49:01.568Z,3.70
2022-08-12T05:49:35.203Z,4.30
2022-08-12T05:50:08.743Z,4.30
2022-08-12T05:50:43.059Z,4.50
2022-08-12T05:51:16.607Z,4.80
2022-08-12T05:51:49.952Z,4.50
2022-08-12T05:52:23.232Z,4.40
2022-08-12T05:52:56.499Z,4.30
2022-08-12T05:53:29.688Z,4.10
2022-08-12T05:54:03.341Z,4.20
2022-08-12T05:54:57.001Z,4.10
2022-08-12T05:55:31.982Z,4.10
2022-08-12T05:56:05.420Z,3.90
2022-08-12T05:56:40.998Z,4.40
2022-08-12T05:57:14.085Z,4.10
2022-08-12T05:57:58.980Z,4.40
2022-08-12T05:58:32.996Z,4.50
2022-08-12T05:59:08.018Z,4.50
2022-08-12T05:59:42.038Z,4.60
2022-08-12T06:00:17.567Z,4.70
2022-08-12T06:00:50.732Z,4.40
2022-08-12T06:02:08.880Z,4.50
2022-08-12T06:02:19.120Z,4.60
2022-08-12T06:03:01.439Z,4.60
2022-08-12T06:03:34.932Z,4.90
2022-08-12T06:04:09.641Z,4.30
2022-08-12T06:04:42.962Z,4.30
2022-08-12T06:05:16.199Z,4.30
2022-08-12T06:05:55.143Z,4.40
2022-08-12T06:06:29.797Z,4.70
2022-08-12T06:07:59.710Z,4.00
2022-08-12T06:08:02.359Z,4.30
2022-08-12T06:08:36.148Z,4.70
2022-08-12T06:09:11.703Z,4.40
2022-08-12T06:09:45.571Z,4.50
2022-08-12T06:10:32.578Z,4.50
2022-08-12T06:11:06.256Z,4.10
2022-08-12T06:12:05.186Z,4.40
2022-08-12T06:12:35.827Z,4.30
2022-08-12T06:13:09.617Z,4.70
2022-08-12T06:13:54.216Z,4.50
2022-08-12T06:14:28.303Z,4.70
2022-08-12T06:15:05.031Z,4.40
2022-08-12T06:15:38.244Z,4.60
2022-08-12T06:16:15.357Z,4.50
2022-08-12T06:16:49.030Z,4.80
2022-08-12T06:17:23.468Z,4.00
2022-08-12T06:18:11.619Z,3.80
2022-08-12T06:18:50.612Z,3.90
2022-08-12T06:19:25.392Z,4.20
2022-08-12T06:20:26.045Z,3.90
2022-08-12T06:21:03.092Z,4.20
2022-08-12T06:21:37.914Z,4.40
2022-08-12T06:22:12.828Z,4.50
2022-08-12T06:22:51.156Z,4.00
2022-08-12T06:23:30.158Z,4.10
2022-08-12T06:24:04.581Z,3.90
2022-08-12T06:24:38.609Z,4.20
2022-08-12T06:25:21.993Z,4.20
2022-08-12T06:25:56.587Z,4.30
2022-08-12T06:26:30.030Z,3.90
2022-08-12T06:27:03.641Z,4.30
2022-08-12T06:28:05.768Z,3.90
2022-08-12T06:28:39.860Z,4.30
2022-08-12T06:30:07.998Z,3.70
2022-08-12T06:30:27.633Z,3.80
2022-08-12T06:31:25.262Z,3.70
2022-08-12T06:31:59.931Z,4.30
2022-08-12T06:32:34.570Z,4.40
2022-08-12T06:33:22.602Z,4.50
2022-08-12T06:34:52.944Z,4.10
2022-08-12T06:35:25.702Z,3.90
2022-08-12T06:35:48.909Z,4.00
2022-08-12T06:36:23.903Z,4.50
2022-08-12T06:37:03.434Z,4.90
2022-08-12T06:37:41.962Z,4.80
2022-08-12T06:38:23.198Z,5.10
2022-08-12T06:38:56.393Z,5.30
2022-08-12T06:39:29.573Z,5.20
2022-08-12T06:40:04.007Z,4.80
2022-08-12T06:40:56.271Z,4.50
2022-08-12T06:42:25.272Z,4.70
2022-08-12T06:42:56.384Z,4.70
2022-08-12T06:43:30.023Z,5.00
2022-08-12T06:44:23.694Z,4.60
2022-08-12T06:44:57.062Z,5.30
2022-08-12T06:45:45.383Z,5.10
2022-08-12T06:46:22.397Z,5.50
2022-08-12T06:46:56.769Z,5.30
2022-08-12T06:47:37.061Z,5.20
2022-08-12T06:48:11.716Z,5.20
2022-08-12T06:48:45.139Z,5.10
2022-08-12T06:49:18.475Z,5.40
2022-08-12T06:49:52.765Z,4.90
2022-08-12T06:50:27.743Z,5.00
2022-08-12T06:51:05.233Z,5.50
2022-08-12T06:51:38.399Z,5.10
2022-08-12T06:52:11.892Z,5.00
2022-08-12T06:52:48.759Z,5.40
2022-08-12T06:53:23.887Z,5.50
2022-08-12T06:53:58.999Z,4.80
2022-08-12T06:54:33.549Z,5.40
2022-08-12T06:55:07.699Z,5.50
2022-08-12T06:55:57.549Z,5.90
2022-08-12T06:57:03.619Z,6.20
2022-08-12T06:58:05.578Z,5.10
2022-08-12T06:58:22.117Z,5.60
2022-08-12T06:58:56.131Z,5.30
2022-08-12T06:59:29.200Z,5.70
2022-08-12T07:00:02.360Z,6.00
2022-08-12T07:00:35.642Z,5.50
2022-08-12T07:01:08.879Z,5.70
2022-08-12T07:01:51.176Z,5.30
2022-08-12T07:02:26.170Z,5.70
2022-08-12T07:03:00.384Z,5.70
2022-08-12T07:03:53.828Z,5.60
2022-08-12T07:04:42.713Z,6.10
2022-08-12T07:05:17.189Z,6.20
2022-08-12T07:05:51.028Z,6.10
2022-08-12T07:06:25.672Z,5.50
2022-08-12T07:06:58.807Z,6.10
2022-08-12T07:07:32.121Z,6.30
2022-08-12T07:08:10.398Z,6.60
2022-08-12T07:08:44.545Z,7.00
2022-08-12T07:10:05.470Z,6.90
2022-08-12T07:10:12.896Z,5.60
2022-08-12T07:10:53.744Z,6.10
2022-08-12T07:11:32.405Z,6.30
2022-08-12T07:12:06.013Z,6.30
2022-08-12T07:12:39.277Z,6.50
2022-08-12T07:13:12.801Z,6.60
2022-08-12T07:14:02.515Z,6.70
2022-08-12T07:14:48.807Z,6.30
2022-08-12T07:15:24.863Z,6.60
2022-08-12T07:15:59.154Z,6.20
2022-08-12T07:16:52.082Z,6.60
2022-08-12T07:17:26.566Z,6.50
2022-08-12T07:18:20.820Z,5.70
2022-08-12T07:18:56.530Z,6.40
2022-08-12T07:19:44.985Z,6.10
2022-08-12T07:20:42.602Z,6.60
2022-08-12T07:21:12.767Z,6.60
2022-08-12T07:22:00.388Z,6.70
2022-08-12T07:22:36.020Z,6.50
2022-08-12T07:23:09.883Z,6.50
2022-08-12T07:23:47.100Z,6.40
2022-08-12T07:24:20.237Z,6.10
2022-08-12T07:25:13.255Z,6.20
2022-08-12T07:25:46.562Z,5.90
2022-08-12T07:26:22.219Z,6.90
2022-08-12T07:26:59.455Z,6.50
2022-08-12T07:27:40.956Z,7.10
2022-08-12T07:28:20.170Z,5.80
2022-08-12T07:28:53.475Z,6.90
2022-08-12T07:29:59.401Z,6.10
2022-08-12T07:30:19.601Z,6.00
2022-08-12T07:30:54.900Z,6.00
2022-08-12T07:31:28.207Z,6.40
2022-08-12T07:32:02.617Z,6.20
2022-08-12T07:32:36.087Z,6.70
2022-08-12T07:33:11.047Z,6.60
2022-08-12T07:33:44.565Z,6.30
2022-08-12T07:34:17.963Z,6.80
2022-08-12T07:34:51.352Z,6.70
2022-08-12T07:35:24.932Z,7.40
2022-08-12T07:36:02.666Z,6.60
2022-08-12T07:36:36.079Z,7.50
2022-08-12T07:37:10.005Z,8.00
2022-08-12T07:37:47.880Z,7.30
2022-08-12T07:38:29.632Z,6.90
2022-08-12T07:39:04.441Z,7.20
2022-08-12T07:39:50.737Z,7.00
2022-08-12T07:40:33.431Z,6.80
2022-08-12T07:41:08.274Z,7.30
2022-08-12T07:41:48.910Z,6.70
2022-08-12T07:42:22.126Z,6.90
2022-08-12T07:42:55.563Z,7.20
2022-08-12T07:43:31.228Z,7.30
2022-08-12T07:44:09.201Z,7.60
2022-08-12T07:44:44.148Z,6.70
2022-08-12T07:45:18.028Z,6.80
2022-08-12T07:45:54.401Z,7.40
2022-08-12T07:46:36.944Z,7.40
2022-08-12T07:47:12.750Z,8.00
2022-08-12T07:47:47.843Z,7.80
2022-08-12T07:48:22.697Z,8.10
2022-08-12T07:48:58.227Z,8.30
2022-08-12T07:49:31.713Z,8.10
2022-08-12T07:50:25.169Z,7.90
2022-08-12T07:50:58.834Z,8.10
2022-08-12T07:51:33.190Z,7.70
2022-08-12T07:52:06.444Z,7.80
2022-08-12T07:52:43.299Z,7.70
2022-08-12T07:53:17.519Z,8.60
2022-08-12T07:54:01.154Z,7.80
2022-08-12T07:54:37.672Z,7.40
2022-08-12T07:55:12.569Z,8.50
2022-08-12T07:55:46.326Z,7.60
2022-08-12T07:56:20.226Z,6.90
2022-08-12T07:56:53.552Z,7.40
2022-08-12T07:57:26.735Z,8.60
2022-08-12T07:58:00.940Z,9.00
2022-08-12T07:58:34.183Z,9.70
2022-08-12T07:59:10.961Z,9.30
2022-08-12T07:59:44.127Z,8.30
2022-08-12T08:00:18.748Z,9.70
2022-08-12T08:00:58.045Z,9.30
2022-08-12T08:01:33.171Z,8.90
2022-08-12T08:02:09.188Z,8.80
2022-08-12T08:02:42.796Z,8.90
2022-08-12T08:03:17.386Z,8.10
2022-08-12T08:04:16.472Z,9.30
2022-08-12T08:04:57.710Z,9.80
2022-08-12T08:05:53.695Z,10.80
2022-08-12T08:06:27.551Z,9.90
2022-08-12T08:07:02.133Z,10.40
2022-08-12T08:07:35.517Z,10.30
2022-08-12T08:08:17.399Z,10.40
2022-08-12T08:08:50.681Z,10.40
2022-08-12T08:09:24.910Z,11.20
2022-08-12T08:09:59.863Z,11.50
2022-08-12T08:10:34.199Z,11.30
2022-08-12T08:11:26.775Z,10.50
2022-08-12T08:12:19.711Z,10.50
2022-08-12T08:12:58.877Z,10.80
2022-08-12T08:13:33.254Z,10.90
2022-08-12T08:14:08.018Z,11.70
2022-08-12T08:14:41.202Z,11.80
2022-08-12T08:15:20.986Z,11.80
2022-08-12T08:16:04.345Z,12.00
2022-08-12T08:16:41.558Z,11.60
2022-08-12T08:17:15.689Z,12.80
2022-08-12T08:18:26.482Z,12.70
2022-08-12T08:19:03.342Z,12.60
2022-08-12T08:20:02.903Z,13.40
2022-08-12T08:20:42.528Z,13.00
2022-08-12T08:21:18.479Z,13.10
2022-08-12T08:21:56.325Z,14.40
2022-08-12T08:22:42.009Z,13.90
2022-08-12T08:23:46.532Z,14.50
2022-08-12T08:24:22.188Z,13.40
2022-08-12T08:24:59.952Z,12.70
2022-08-12T08:25:37.704Z,13.50
2022-08-12T08:26:11.051Z,13.70
2022-08-12T08:26:48.336Z,13.40
2022-08-12T08:27:22.581Z,13.90
2022-08-12T08:27:55.670Z,13.10
2022-08-12T08:28:29.534Z,14.70
2022-08-12T08:29:03.207Z,14.50
2022-08-12T08:29:37.725Z,14.00
2022-08-12T08:30:12.524Z,14.80
2022-08-12T08:30:50.591Z,15.00
2022-08-12T08:31:24.494Z,14.40
2022-08-12T08:32:01.741Z,15.30
2022-08-12T08:32:35.156Z,15.00
2022-08-12T08:33:22.775Z,15.90
2022-08-12T08:34:09.264Z,15.40
2022-08-12T08:34:54.160Z,15.30
2022-08-12T08:35:46.254Z,15.40
2022-08-12T08:36:24.009Z,13.80
2022-08-12T08:36:58.213Z,15.00
2022-08-12T08:37:33.474Z,14.90
2022-08-12T08:38:30.747Z,16.20
2022-08-12T08:39:11.601Z,15.30
2022-08-12T08:39:45.030Z,15.70
2022-08-12T08:40:38.166Z,15.70
2022-08-12T08:42:15.682Z,16.30
2022-08-12T08:42:40.801Z,16.20
2022-08-12T08:43:14.158Z,17.20
2022-08-12T08:43:47.393Z,17.80
2022-08-12T08:44:22.269Z,18.40
2022-08-12T08:44:58.450Z,17.90
2022-08-12T08:45:31.900Z,17.90
2022-08-12T08:46:06.324Z,18.30
2022-08-12T08:46:40.970Z,17.50
2022-08-12T08:47:14.412Z,17.70
2022-08-12T08:47:49.389Z,18.20
2022-08-12T08:48:24.320Z,17.30
2022-08-12T08:48:59.613Z,15.90
2022-08-12T08:49:34.310Z,15.20
2022-08-12T08:50:11.101Z,15.70
2022-08-12T08:50:45.721Z,14.60
2022-08-12T08:51:39.366Z,16.20
2022-08-12T08:52:12.718Z,15.30
2022-08-12T08:53:07.834Z,16.40
2022-08-12T08:53:41.628Z,15.10
2022-08-12T08:54:15.136Z,15.60
2022-08-12T08:54:49.186Z,17.00
2022-08-12T08:55:33.360Z,19.00
2022-08-12T08:56:11.728Z,15.30
2022-08-12T08:56:50.366Z,16.60
2022-08-12T08:57:24.209Z,16.80
2022-08-12T08:58:21.600Z,15.90
2022-08-12T08:58:54.847Z,14.00
2022-08-12T08:59:29.651Z,14.00
2022-08-12T09:00:04.569Z,14.50
2022-08-12T09:00:40.853Z,14.80
2022-08-12T09:01:24.009Z,13.80
2022-08-12T09:01:58.420Z,13.80
2022-08-12T09:02:31.921Z,14.20
2022-08-12T09:04:21.209Z,13.20
2022-08-12T09:05:11.314Z,13.50
2022-08-12T09:06:02.339Z,16.40
2022-08-12T09:07:51.628Z,13.50
2022-08-12T09:08:27.628Z,13.80
2022-08-12T09:09:02.734Z,16.10
2022-08-12T09:10:02.208Z,16.60
2022-08-12T09:10:38.830Z,16.50
2022-08-12T09:12:06.657Z,14.30